Time;durP1;ratioP1;P1;durP2;ratioP2;P2;SDS_P1;SDS_P2;PMS_P1;PMS_P2;Temp;Humidity;BMP_temperature;BMP_pressure;BME280_temperature;BME280_humidity;BME280_pressure;Samples;Min_cycle;Max_cycle;Signal;HPM_P1;HPM_P2
2022/01/10 00:01:09;;;;;;;23.00;5.73;;;4.00;99.90;;;;;;6101156;23;20017;-89
2022/01/10 00:06:10;;;;;;;29.83;5.93;;;3.90;99.90;;;;;;6124961;23;20026;-90
2022/01/10 00:08:37;;;;;;;22.73;5.13;;;3.90;99.90;;;;;;6138908;23;20087;-88
2022/01/10 00:11:03;;;;;;;25.48;5.22;;;3.90;99.90;;;;;;6105880;23;20096;-94
2022/01/10 00:13:28;;;;;;;19.60;5.63;;;3.90;99.90;;;;;;6084999;23;20037;-91
2022/01/10 00:15:54;;;;;;;23.03;5.10;;;3.80;99.90;;;;;;6107487;23;20022;-88
2022/01/10 00:18:20;;;;;;;23.90;5.03;;;3.80;99.90;;;;;;6101210;23;20025;-88
2022/01/10 00:20:46;;;;;;;22.53;5.20;;;3.80;99.90;;;;;;6101422;23;20021;-93
2022/01/10 00:23:12;;;;;;;25.87;5.10;;;3.80;99.90;;;;;;6077002;23;20049;-93
2022/01/10 00:25:37;;;;;;;23.20;4.17;;;3.80;99.90;;;;;;6103208;23;20025;-89
2022/01/10 00:28:03;;;;;;;24.30;4.53;;;3.80;99.90;;;;;;6102850;23;20068;-89
2022/01/10 00:30:29;;;;;;;21.60;4.83;;;3.70;99.90;;;;;;6103134;23;20076;-90
2022/01/10 00:32:55;;;;;;;18.00;4.43;;;3.80;99.90;;;;;;6102761;23;20084;-89
2022/01/10 00:35:36;;;;;;;16.87;4.13;;;3.70;99.90;;;;;;6102940;23;20053;-90
2022/01/10 00:38:01;;;;;;;19.40;4.43;;;3.70;99.90;;;;;;6103134;23;20056;-91
2022/01/10 00:40:27;;;;;;;17.60;4.47;;;3.80;99.90;;;;;;6103516;23;20017;-96
2022/01/10 00:42:56;;;;;;;22.03;4.57;;;3.70;99.90;;;;;;6131002;23;20017;-92
2022/01/10 00:45:26;;;;;;;23.17;4.40;;;3.70;99.90;;;;;;6128890;23;20014;-96
2022/01/10 00:47:53;;;;;;;24.83;4.60;;;3.70;99.90;;;;;;6103863;23;20022;-92
2022/01/10 00:50:20;;;;;;;20.27;4.32;;;3.70;99.90;;;;;;6102849;23;20022;-94
2022/01/10 00:52:46;;;;;;;20.52;4.80;;;3.70;99.90;;;;;;6079467;23;20061;-92
2022/01/10 00:55:12;;;;;;;26.67;6.83;;;3.60;99.90;;;;;;6078932;23;20013;-90
2022/01/10 00:57:38;;;;;;;15.13;4.50;;;3.60;99.90;;;;;;6102600;23;20049;-93
2022/01/10 01:00:08;;;;;;;19.67;5.00;;;3.60;99.90;;;;;;6102684;23;20051;-93
2022/01/10 01:02:33;;;;;;;22.98;5.45;;;3.60;99.90;;;;;;6102632;23;20014;-93
2022/01/10 01:05:01;;;;;;;22.10;4.93;;;3.60;99.90;;;;;;6082146;23;20025;-94
2022/01/10 01:07:27;;;;;;;20.45;5.05;;;3.60;99.90;;;;;;6106850;23;20022;-93
2022/01/10 01:10:06;;;;;;;19.40;4.93;;;3.60;99.90;;;;;;6132112;23;20055;-91
2022/01/10 01:12:55;;;;;;;23.25;4.75;;;3.60;99.90;;;;;;6157788;23;20028;-89
2022/01/10 01:15:25;;;;;;;20.15;4.97;;;3.50;99.90;;;;;;6131964;23;20017;-93
2022/01/10 01:26:03;;;;;;;20.80;4.95;;;3.40;99.90;;;;;;6131954;23;20017;-91
2022/01/10 01:28:29;;;;;;;24.83;5.13;;;3.30;99.90;;;;;;6157736;23;20046;-88
2022/01/10 01:30:55;;;;;;;26.00;5.45;;;3.30;99.90;;;;;;6107233;23;20100;-91
2022/01/10 01:33:23;;;;;;;22.87;5.50;;;3.30;99.90;;;;;;6107577;23;20016;-90
2022/01/10 01:35:51;;;;;;;25.40;5.90;;;3.30;99.90;;;;;;6131603;23;20284;-94
2022/01/10 01:38:17;;;;;;;22.67;7.18;;;3.30;99.90;;;;;;6107188;23;20463;-92
2022/01/10 01:40:51;;;;;;;18.30;4.80;;;3.30;99.90;;;;;;6131842;23;20017;-91
2022/01/10 01:43:16;;;;;;;21.63;5.60;;;3.20;99.90;;;;;;6131693;23;20096;-89
2022/01/10 01:45:45;;;;;;;26.60;6.13;;;3.20;99.90;;;;;;6131678;23;20454;-92
2022/01/10 01:48:11;;;;;;;21.35;6.13;;;3.20;99.90;;;;;;6131576;23;20029;-93
2022/01/10 01:50:37;;;;;;;23.05;5.35;;;3.10;99.90;;;;;;6131662;23;20013;-92
2022/01/10 01:53:05;;;;;;;20.73;5.53;;;3.20;99.90;;;;;;6156463;23;20060;-93
2022/01/10 01:55:31;;;;;;;21.42;5.38;;;3.20;99.90;;;;;;6131850;23;20344;-92
2022/01/10 01:57:57;;;;;;;26.83;5.87;;;3.20;99.90;;;;;;6131574;23;20022;-92
2022/01/10 02:05:34;;;;;;;21.70;5.05;;;3.10;99.90;;;;;;6075437;23;20373;-89
2022/01/10 02:08:00;;;;;;;24.93;5.63;;;3.10;99.90;;;;;;6067933;23;20070;-90
2022/01/10 02:10:26;;;;;;;19.45;4.47;;;3.10;99.90;;;;;;6044185;23;20022;-90
2022/01/10 02:12:53;;;;;;;21.63;4.82;;;3.10;99.90;;;;;;6068281;23;20478;-91
2022/01/10 02:15:32;;;;;;;19.17;4.60;;;3.10;99.90;;;;;;6044256;23;20023;-89
2022/01/10 02:18:35;;;;;;;22.58;4.55;;;3.10;99.90;;;;;;6068320;23;20019;-91
2022/01/10 02:21:41;;;;;;;19.25;5.07;;;3.10;99.90;;;;;;6044812;23;20077;-89
2022/01/10 02:24:07;;;;;;;19.20;5.13;;;3.10;99.90;;;;;;6043657;23;20019;-89
2022/01/10 02:26:33;;;;;;;21.27;4.80;;;3.10;99.90;;;;;;6067712;23;20053;-89
2022/01/10 02:28:59;;;;;;;15.35;4.43;;;3.10;99.90;;;;;;6067356;23;20028;-91
2022/01/10 02:31:25;;;;;;;17.02;4.88;;;3.10;99.90;;;;;;6068053;23;20105;-87
2022/01/10 02:33:56;;;;;;;21.93;6.27;;;3.10;99.90;;;;;;6067548;23;20053;-87
2022/01/10 02:39:09;;;;;;;19.90;5.20;;;3.10;99.90;;;;;;6074418;23;20060;-93
2022/01/10 02:41:38;;;;;;;20.92;5.20;;;3.20;99.90;;;;;;6049054;23;20026;-94
2022/01/10 02:44:09;;;;;;;27.38;6.00;;;3.10;99.90;;;;;;6048807;23;20015;-93
2022/01/10 02:46:39;;;;;;;25.23;5.50;;;3.10;99.90;;;;;;6048519;23;20022;-94
2022/01/10 02:49:10;;;;;;;20.17;5.00;;;3.10;99.90;;;;;;6072600;23;20041;-94
2022/01/10 02:51:36;;;;;;;23.08;5.55;;;3.10;99.90;;;;;;6049031;23;20018;-94
2022/01/10 02:54:02;;;;;;;21.35;5.50;;;3.10;99.90;;;;;;6048910;23;20023;-94
2022/01/10 02:56:28;;;;;;;26.43;5.30;;;3.00;99.90;;;;;;6072725;23;20344;-93
2022/01/10 02:58:53;;;;;;;26.70;4.93;;;3.00;99.90;;;;;;6048816;23;20426;-94
2022/01/10 03:01:19;;;;;;;28.07;5.93;;;3.00;99.90;;;;;;6072563;23;20065;-90
2022/01/10 03:03:45;;;;;;;26.67;6.83;;;3.00;99.90;;;;;;6049032;23;20019;-95
2022/01/10 03:06:11;;;;;;;21.97;5.33;;;3.00;99.90;;;;;;6072620;23;20355;-90
2022/01/10 03:08:37;;;;;;;19.77;5.80;;;3.00;99.90;;;;;;6072844;23;20093;-94
2022/01/10 03:11:03;;;;;;;20.27;5.90;;;3.00;99.90;;;;;;6048982;23;20452;-95
2022/01/10 03:13:29;;;;;;;23.90;7.15;;;3.00;99.90;;;;;;6048904;23;20408;-95
2022/01/10 03:15:55;;;;;;;18.70;5.37;;;3.00;99.90;;;;;;6072950;23;20026;-95
2022/01/10 03:18:20;;;;;;;21.03;5.43;;;3.00;99.90;;;;;;6048361;23;20027;-89
2022/01/10 03:20:46;;;;;;;18.23;5.13;;;3.00;99.90;;;;;;6072792;23;20010;-94
2022/01/10 03:23:12;;;;;;;19.40;5.97;;;2.90;99.90;;;;;;6072549;23;20026;-90
2022/01/10 03:25:38;;;;;;;23.77;6.53;;;2.90;99.90;;;;;;6072605;23;20022;-93
2022/01/10 03:28:05;;;;;;;19.73;5.50;;;2.90;99.90;;;;;;6047954;23;20399;-95
2022/01/10 03:30:31;;;;;;;20.13;5.22;;;2.90;99.90;;;;;;6048635;23;20523;-94
2022/01/10 03:32:58;;;;;;;18.40;5.50;;;2.90;99.90;;;;;;6048993;23;20018;-94
2022/01/10 03:35:24;;;;;;;26.45;6.45;;;2.90;99.90;;;;;;6048490;23;20150;-94
2022/01/10 03:37:50;;;;;;;25.83;6.77;;;2.80;99.90;;;;;;6048640;23;20014;-91
2022/01/10 03:40:16;;;;;;;20.03;6.47;;;2.90;99.90;;;;;;6048285;23;20570;-94
2022/01/10 03:42:42;;;;;;;20.70;6.63;;;2.80;99.90;;;;;;6048593;23;20034;-96
2022/01/10 03:45:08;;;;;;;20.57;6.20;;;2.80;99.90;;;;;;6072215;23;20022;-94
2022/01/10 03:47:34;;;;;;;27.77;6.43;;;2.80;99.90;;;;;;6097825;23;20019;-92
2022/01/10 03:49:59;;;;;;;21.90;7.17;;;2.80;99.90;;;;;;6072177;23;20015;-96
2022/01/10 03:52:27;;;;;;;19.40;5.57;;;2.70;99.90;;;;;;6072690;23;20054;-94
2022/01/10 03:54:53;;;;;;;24.23;6.05;;;2.70;99.90;;;;;;6072217;23;20014;-93
2022/01/10 03:57:18;;;;;;;19.83;6.80;;;2.70;99.90;;;;;;6048485;23;20014;-91
2022/01/10 03:59:44;;;;;;;19.97;5.93;;;2.70;99.90;;;;;;6072353;23;20110;-93
2022/01/10 04:02:10;;;;;;;25.87;7.00;;;2.70;99.90;;;;;;6048589;23;20060;-89
2022/01/10 04:04:38;;;;;;;23.97;6.67;;;2.70;99.90;;;;;;6048420;23;20101;-94
2022/01/10 04:07:04;;;;;;;26.88;7.28;;;2.60;99.90;;;;;;6072525;23;20531;-96
2022/01/10 04:09:30;;;;;;;23.35;6.80;;;2.70;99.90;;;;;;6048289;23;20025;-94
2022/01/10 04:11:56;;;;;;;26.20;7.13;;;2.70;99.90;;;;;;6072502;23;20022;-93
2022/01/10 04:14:22;;;;;;;21.58;7.47;;;2.70;99.90;;;;;;6048450;23;20078;-94
2022/01/10 04:16:47;;;;;;;22.47;7.17;;;2.60;99.90;;;;;;6048798;23;20018;-95
2022/01/10 04:19:13;;;;;;;17.75;6.55;;;2.60;99.90;;;;;;6048208;23;20057;-96
2022/01/10 04:21:39;;;;;;;22.53;6.97;;;2.60;99.90;;;;;;6048595;23;20077;-95
2022/01/10 04:24:05;;;;;;;20.80;6.63;;;2.60;99.90;;;;;;6048416;23;20363;-96
2022/01/10 04:26:52;;;;;;;22.47;6.67;;;2.60;99.90;;;;;;6068296;23;20457;-95
2022/01/10 04:29:18;;;;;;;24.33;6.45;;;2.60;99.90;;;;;;6151030;23;20048;-96
2022/01/10 04:31:44;;;;;;;24.93;7.13;;;2.50;99.90;;;;;;6130757;23;20037;-96
2022/01/10 04:34:12;;;;;;;20.60;7.17;;;2.50;99.90;;;;;;6130911;23;20435;-90
2022/01/10 04:36:37;;;;;;;23.35;7.00;;;2.50;99.90;;;;;;6134821;23;20045;-96
2022/01/10 04:39:03;;;;;;;19.05;7.35;;;2.50;99.90;;;;;;6133928;23;20018;-96
2022/01/10 04:41:29;;;;;;;19.47;7.07;;;2.50;99.90;;;;;;6135436;23;20025;-96
2022/01/10 04:43:55;;;;;;;17.53;6.90;;;2.50;99.90;;;;;;6133413;23;20021;-95
2022/01/10 04:46:21;;;;;;;25.30;7.53;;;2.50;99.90;;;;;;6130629;23;20032;-90
2022/01/10 04:48:51;;;;;;;21.42;7.60;;;2.50;99.90;;;;;;6130836;23;20092;-94
2022/01/10 04:51:17;;;;;;;20.48;8.38;;;2.50;99.90;;;;;;6155679;23;20062;-96
2022/01/10 04:53:50;;;;;;;18.92;7.80;;;2.50;99.90;;;;;;6130668;23;20021;-95
2022/01/10 04:56:17;;;;;;;21.10;7.45;;;2.50;99.90;;;;;;6155391;23;20021;-95
2022/01/10 04:58:45;;;;;;;24.13;7.70;;;2.50;99.90;;;;;;6130338;23;20022;-94
2022/01/10 05:01:12;;;;;;;26.27;8.35;;;2.40;99.90;;;;;;6155072;23;20049;-92
2022/01/10 05:03:44;;;;;;;19.92;7.60;;;2.40;99.90;;;;;;6131104;23;20084;-94
2022/01/10 05:06:09;;;;;;;22.30;7.85;;;2.40;99.90;;;;;;6130293;23;20021;-93
2022/01/10 05:08:35;;;;;;;25.07;9.33;;;2.30;99.90;;;;;;6130298;23;20021;-93
2022/01/10 05:11:01;;;;;;;25.60;8.55;;;2.30;99.90;;;;;;6156582;23;20079;-93
2022/01/10 05:13:27;;;;;;;21.57;7.83;;;2.30;99.90;;;;;;6132230;23;20020;-92
2022/01/10 05:15:53;;;;;;;23.93;8.23;;;2.30;99.90;;;;;;6157251;23;20079;-95
2022/01/10 05:18:21;;;;;;;22.95;7.68;;;2.30;99.90;;;;;;6158839;23;20014;-94
2022/01/10 05:20:48;;;;;;;28.63;8.63;;;2.30;99.90;;;;;;6139997;23;20021;-94
2022/01/10 05:23:14;;;;;;;24.00;9.05;;;2.30;99.90;;;;;;6171489;23;20013;-96
2022/01/10 05:25:40;;;;;;;31.13;10.07;;;2.30;99.90;;;;;;6138642;23;20104;-96
2022/01/10 05:28:11;;;;;;;34.83;10.00;;;2.30;99.90;;;;;;6164015;23;20097;-93
2022/01/10 05:30:38;;;;;;;29.08;9.55;;;2.30;99.90;;;;;;6163319;23;20026;-95
2022/01/10 05:33:05;;;;;;;25.40;10.43;;;2.40;99.90;;;;;;6133308;23;20435;-96
2022/01/10 05:35:31;;;;;;;27.52;10.80;;;2.30;99.90;;;;;;6132219;23;20021;-95
2022/01/10 05:37:56;;;;;;;26.05;10.40;;;2.30;99.90;;;;;;6157030;23;20010;-96
2022/01/10 05:40:22;;;;;;;17.40;7.43;;;2.30;99.90;;;;;;6132190;23;20022;-94
2022/01/10 05:42:48;;;;;;;17.40;7.63;;;2.30;99.90;;;;;;6156456;23;20100;-92
2022/01/10 05:45:14;;;;;;;31.63;10.63;;;2.30;99.90;;;;;;6156590;23;20025;-93
2022/01/10 05:47:42;;;;;;;19.13;8.70;;;2.30;99.90;;;;;;6131742;23;20021;-96
2022/01/10 05:50:13;;;;;;;23.88;8.38;;;2.20;99.90;;;;;;6132380;23;20109;-94
2022/01/10 05:52:39;;;;;;;18.95;8.27;;;2.30;99.90;;;;;;6131994;23;20009;-95
2022/01/10 05:55:05;;;;;;;23.02;8.55;;;2.20;99.90;;;;;;6132149;23;20092;-92
2022/01/10 05:57:31;;;;;;;17.05;8.02;;;2.20;99.90;;;;;;6131947;23;20025;-91
2022/01/10 06:00:04;;;;;;;21.90;8.90;;;2.10;99.90;;;;;;6131645;23;20049;-90
2022/01/10 06:02:30;;;;;;;22.20;8.25;;;2.10;99.90;;;;;;6155835;23;20021;-88
2022/01/10 06:04:59;;;;;;;26.27;8.55;;;2.10;99.90;;;;;;6155612;23;20338;-90
2022/01/10 06:07:25;;;;;;;17.73;8.48;;;2.10;99.90;;;;;;6154250;23;20068;-93
2022/01/10 06:09:50;;;;;;;17.33;7.90;;;2.10;99.90;;;;;;6130737;23;20021;-88
2022/01/10 06:12:16;;;;;;;16.40;7.63;;;2.00;99.90;;;;;;6130672;23;20053;-87
2022/01/10 06:15:13;;;;;;;16.53;8.00;;;2.00;99.90;;;;;;6155807;23;20013;-92
2022/01/10 06:18:12;;;;;;;16.38;7.20;;;1.90;99.90;;;;;;6131455;23;20021;-90
2022/01/10 06:20:38;;;;;;;23.02;8.30;;;1.90;99.90;;;;;;6131449;23;20017;-91
2022/01/10 06:23:11;;;;;;;16.58;7.68;;;1.80;99.90;;;;;;6131412;23;20018;-91
2022/01/10 06:25:39;;;;;;;19.15;7.50;;;1.70;99.90;;;;;;6155730;23;20017;-95
2022/01/10 06:28:05;;;;;;;20.73;10.27;;;1.70;99.90;;;;;;6130739;23;20018;-87
2022/01/10 06:30:31;;;;;;;36.80;13.27;;;1.70;99.90;;;;;;6155605;23;20025;-90
2022/01/10 06:32:57;;;;;;;31.60;14.67;;;1.70;99.90;;;;;;6156948;23;20346;-92
2022/01/10 06:35:24;;;;;;;34.23;15.90;;;1.70;99.90;;;;;;6131506;23;20041;-92
2022/01/10 06:37:50;;;;;;;;;;;1.80;99.90;;;;;;6132223;23;20013;-93
2022/01/10 06:40:16;;;;;;;37.17;16.33;;;1.80;99.90;;;;;;6131680;23;19916;-92
2022/01/10 06:42:44;;;;;;;41.97;17.50;;;1.90;99.90;;;;;;6131384;23;20044;-94
2022/01/10 06:45:11;;;;;;;45.60;16.80;;;2.00;99.90;;;;;;6129354;23;20099;-91
2022/01/10 06:47:37;;;;;;;43.00;17.20;;;2.00;99.90;;;;;;6130682;23;20021;-92
2022/01/10 06:50:05;;;;;;;33.50;16.60;;;2.00;99.90;;;;;;6156713;23;20444;-89
2022/01/10 06:52:30;;;;;;;60.70;30.73;;;2.00;99.90;;;;;;6130588;23;20439;-88
2022/01/10 06:54:56;;;;;;;104.93;55.50;;;2.00;99.90;;;;;;6155048;23;20056;-89
2022/01/10 06:57:22;;;;;;;72.60;38.53;;;2.00;99.90;;;;;;6155319;23;20478;-90
2022/01/10 06:59:48;;;;;;;99.97;58.53;;;2.00;99.90;;;;;;6130592;23;20028;-90
2022/01/10 07:02:14;;;;;;;56.90;30.83;;;2.00;99.90;;;;;;6130712;23;20379;-89
2022/01/10 07:04:40;;;;;;;44.87;20.30;;;2.00;99.90;;;;;;6134831;23;20041;-94
2022/01/10 07:07:06;;;;;;;42.23;19.70;;;2.00;99.90;;;;;;6128469;23;20022;-91
2022/01/10 07:09:32;;;;;;;45.92;21.02;;;2.00;99.90;;;;;;6127247;23;20068;-90
2022/01/10 07:11:58;;;;;;;47.45;21.85;;;2.00;99.90;;;;;;6130356;23;20017;-91
2022/01/10 07:14:24;;;;;;;41.97;22.35;;;2.00;99.90;;;;;;6130803;23;20104;-92
2022/01/10 07:16:52;;;;;;;43.85;21.23;;;2.00;99.90;;;;;;6131678;23;20072;-91
2022/01/10 07:19:18;;;;;;;52.42;22.95;;;2.00;99.90;;;;;;6154980;23;20024;-92
2022/01/10 07:44:31;;;;;;;44.15;21.45;;;2.10;99.90;;;;;;6148801;23;20404;-88
2022/01/10 07:46:58;;;;;;;54.08;23.98;;;2.00;99.90;;;;;;6124984;23;20026;-91
2022/01/10 07:49:24;;;;;;;45.70;22.75;;;2.00;99.90;;;;;;6100601;23;20448;-89
2022/01/10 07:51:51;;;;;;;46.75;22.77;;;2.10;99.90;;;;;;6125445;23;20018;-90
2022/01/10 07:54:17;;;;;;;31.27;18.02;;;2.10;99.90;;;;;;6125172;23;20088;-89
2022/01/10 07:56:58;;;;;;;34.43;16.73;;;2.10;99.90;;;;;;6125684;23;20022;-90
2022/01/10 07:59:24;;;;;;;29.65;14.38;;;2.10;99.90;;;;;;6124961;23;20113;-89
2022/01/10 08:01:50;;;;;;;28.25;14.35;;;2.00;99.90;;;;;;6102731;23;20014;-94
2022/01/10 08:04:16;;;;;;;37.70;14.53;;;1.90;99.90;;;;;;6125819;23;20014;-93
2022/01/10 08:06:42;;;;;;;29.00;14.80;;;1.70;99.90;;;;;;6101286;23;20022;-94
2022/01/10 08:09:08;;;;;;;24.90;13.60;;;1.70;99.90;;;;;;6101129;23;20022;-94
2022/01/10 08:11:34;;;;;;;31.63;16.05;;;1.60;99.90;;;;;;6101367;23;20013;-95
2022/01/10 08:14:00;;;;;;;27.83;14.73;;;1.60;99.90;;;;;;6125833;23;20032;-94
2022/01/10 08:16:27;;;;;;;31.10;14.88;;;1.60;99.90;;;;;;6102634;23;20010;-96
2022/01/10 08:18:53;;;;;;;25.65;14.45;;;1.60;99.90;;;;;;6108837;23;20053;-95
2022/01/10 08:21:19;;;;;;;36.80;17.10;;;1.60;99.90;;;;;;6109689;23;20490;-96
2022/01/10 08:23:45;;;;;;;28.00;14.07;;;1.50;99.90;;;;;;6111342;23;20025;-96
2022/01/10 08:26:14;;;;;;;24.25;13.45;;;1.50;99.90;;;;;;6107848;23;20034;-94
2022/01/10 08:50:17;;;;;;;28.13;14.63;;;1.50;99.90;;;;;;6116050;23;20447;-94
2022/01/10 08:52:43;;;;;;;31.60;16.30;;;1.40;99.90;;;;;;6081644;23;20022;-94
2022/01/10 08:55:10;;;;;;;28.37;16.03;;;1.40;99.90;;;;;;6127745;23;20018;-92
2022/01/10 08:57:36;;;;;;;35.25;17.27;;;1.50;99.90;;;;;;6103476;23;20045;-93
2022/01/10 09:00:05;;;;;;;38.60;17.10;;;1.50;99.90;;;;;;6103334;23;20020;-93
2022/01/10 09:02:31;;;;;;;31.80;16.95;;;1.50;99.90;;;;;;6102735;23;20018;-91
2022/01/10 09:04:57;;;;;;;35.60;18.70;;;1.50;99.90;;;;;;6104911;23;20053;-96
2022/01/10 09:07:23;;;;;;;29.77;17.37;;;1.50;99.90;;;;;;6112676;23;20028;-93
2022/01/10 09:12:24;;;;;;;35.30;16.88;;;1.60;99.90;;;;;;6134867;23;20026;-94
2022/01/10 09:14:50;;;;;;;30.33;16.92;;;1.60;99.90;;;;;;6079754;23;20026;-92
2022/01/10 09:17:16;;;;;;;38.80;17.65;;;1.70;99.90;;;;;;6080044;23;20014;-94
2022/01/10 09:23:56;;;;;;;31.05;17.08;;;1.80;99.90;;;;;;6099312;23;20081;-91
2022/01/10 11:33:42;;;;;;;56.35;30.25;;;3.90;99.90;;;;;;6155748;23;20017;-91
2022/01/10 11:36:09;;;;;;;55.50;29.83;;;4.00;99.90;;;;;;6130541;23;20100;-90
2022/01/10 11:42:24;;;;;;;53.22;31.00;;;4.10;99.90;;;;;;6130252;23;20028;-90
2022/01/10 11:45:11;;;;;;;55.03;31.00;;;4.10;99.90;;;;;;6130540;23;20514;-91
2022/01/10 11:48:23;;;;;;;55.47;31.27;;;4.20;99.90;;;;;;6131186;23;20101;-91
2022/01/10 11:57:35;;;;;;;53.63;30.70;;;4.30;99.90;;;;;;6123637;23;20029;-93
2022/01/10 12:04:22;;;;;;;49.05;28.77;;;4.40;99.90;;;;;;5980280;24;20032;-94
2022/01/10 12:12:04;;;;;;;;;;;;;;;;;;;;;
2022/01/10 12:14:22;;;;;;;55.88;29.50;;;4.60;99.90;;;;;;5953293;24;20024;-91
2022/01/10 12:16:48;;;;;;;51.60;28.45;;;4.60;99.90;;;;;;5958363;24;20024;-94
2022/01/10 12:19:14;;;;;;;54.10;30.23;;;4.60;99.90;;;;;;5959347;24;20071;-94
2022/01/10 12:21:40;;;;;;;52.87;30.80;;;4.60;99.90;;;;;;6053681;23;20049;-95
2022/01/10 12:24:07;;;;;;;52.20;28.67;;;4.60;99.90;;;;;;6132946;23;20397;-94
2022/01/10 12:26:33;;;;;;;50.08;30.05;;;4.60;99.90;;;;;;6132480;23;20097;-94
2022/01/10 12:29:01;;;;;;;50.78;30.38;;;4.70;99.90;;;;;;6132313;23;20018;-93
2022/01/10 12:31:30;;;;;;;58.47;30.55;;;4.70;99.90;;;;;;6132521;23;20097;-94
2022/01/10 12:33:58;;;;;;;53.30;29.42;;;4.70;99.90;;;;;;6127436;23;20102;-94
2022/01/10 12:36:25;;;;;;;52.35;29.13;;;4.80;99.90;;;;;;6127635;23;20018;-93
2022/01/10 12:39:09;;;;;;;54.42;29.75;;;4.80;99.90;;;;;;6127435;23;20021;-94
2022/01/10 12:41:35;;;;;;;52.85;30.02;;;4.70;99.90;;;;;;6127381;23;20029;-94
2022/01/10 12:44:02;;;;;;;61.13;30.80;;;4.80;99.90;;;;;;6127390;23;20014;-94
2022/01/10 12:46:32;;;;;;;53.47;30.65;;;4.80;99.90;;;;;;6127306;23;20060;-94
2022/01/10 12:49:03;;;;;;;59.78;28.95;;;4.80;99.90;;;;;;6127493;23;20018;-94
2022/01/10 12:51:36;;;;;;;51.78;27.98;;;4.90;99.90;;;;;;6127396;23;20014;-93
2022/01/10 12:54:05;;;;;;;57.08;29.77;;;4.90;99.90;;;;;;6127189;23;20018;-93
2022/01/10 12:56:31;;;;;;;54.95;29.70;;;4.90;99.90;;;;;;6127399;23;20024;-93
2022/01/10 12:58:57;;;;;;;56.42;29.67;;;4.90;99.90;;;;;;6127270;23;20022;-93
2022/01/10 13:01:23;;;;;;;56.57;30.37;;;5.00;99.90;;;;;;6103051;23;20499;-94
2022/01/10 13:03:56;;;;;;;56.77;28.93;;;5.00;99.90;;;;;;6127185;23;20452;-93
2022/01/10 13:06:26;;;;;;;51.00;29.42;;;5.00;99.90;;;;;;6127301;23;20308;-93
2022/01/10 13:08:53;;;;;;;47.47;30.05;;;5.10;99.90;;;;;;6127223;23;20021;-95
2022/01/10 13:11:22;;;;;;;66.30;29.65;;;5.10;99.90;;;;;;6127147;23;20029;-94
2022/01/10 13:13:48;;;;;;;50.38;30.05;;;5.00;99.90;;;;;;6127358;23;20038;-94
2022/01/10 13:16:23;;;;;;;50.08;29.13;;;5.10;99.90;;;;;;6127581;23;20018;-95
2022/01/10 13:19:00;;;;;;;55.85;29.58;;;5.10;99.90;;;;;;6102731;23;20018;-95
2022/01/10 13:21:55;;;;;;;58.45;30.60;;;5.10;99.90;;;;;;6127662;23;20018;-91
2022/01/10 13:24:24;;;;;;;50.78;28.65;;;5.10;99.90;;;;;;6127281;23;20024;-93
2022/01/10 13:27:06;;;;;;;52.38;27.92;;;5.10;99.90;;;;;;6127100;23;20013;-93
2022/01/10 13:29:34;;;;;;;44.15;26.85;;;5.10;99.90;;;;;;6126661;23;20049;-93
2022/01/10 13:32:19;;;;;;;53.10;27.33;;;5.10;99.90;;;;;;6128075;23;20014;-95
2022/01/10 13:34:49;;;;;;;44.80;27.38;;;5.10;99.90;;;;;;6107421;23;20053;-93
2022/01/10 13:41:40;;;;;;;54.45;28.00;;;5.10;99.90;;;;;;6157886;23;20056;-96
2022/01/10 14:21:36;;;;;;;45.42;23.98;;;5.10;99.90;;;;;;6157405;23;20032;-94
2022/01/10 14:24:02;;;;;;;38.92;23.35;;;5.00;99.90;;;;;;6133059;23;20032;-95
2022/01/10 14:26:29;;;;;;;42.45;23.52;;;5.00;99.90;;;;;;6131680;23;20013;-91
2022/01/10 14:28:55;;;;;;;38.03;22.85;;;5.10;99.90;;;;;;6107135;23;20021;-90
2022/01/10 14:31:21;;;;;;;39.40;22.87;;;5.00;99.90;;;;;;6131662;23;20522;-93
2022/01/10 14:33:49;;;;;;;43.95;22.92;;;5.00;99.90;;;;;;6131218;23;20351;-91
2022/01/10 14:36:15;;;;;;;33.10;20.98;;;5.00;99.90;;;;;;6131250;23;20018;-92
2022/01/10 14:39:02;;;;;;;41.23;21.87;;;4.90;99.90;;;;;;6131169;23;20022;-95
2022/01/10 14:41:36;;;;;;;34.20;20.92;;;4.90;99.90;;;;;;6130501;23;20593;-94
2022/01/10 14:44:02;;;;;;;33.92;20.95;;;4.90;99.90;;;;;;6131454;23;20474;-95
2022/01/10 14:46:28;;;;;;;32.63;20.80;;;4.80;99.90;;;;;;6131265;23;20017;-95
2022/01/10 14:48:53;;;;;;;30.93;19.30;;;4.70;99.90;;;;;;6131149;23;20024;-92
2022/01/10 14:51:19;;;;;;;31.83;19.50;;;4.70;99.90;;;;;;6131073;23;20071;-91
2022/01/10 14:53:45;;;;;;;35.37;20.13;;;4.70;99.90;;;;;;6131100;23;20030;-93
2022/01/10 14:56:47;;;;;;;29.63;18.43;;;4.60;99.90;;;;;;6131056;23;20045;-95
2022/01/10 15:10:20;;;;;;;27.65;17.67;;;4.40;99.90;;;;;;6156556;23;20095;-92
2022/01/10 15:12:46;;;;;;;32.40;18.48;;;4.40;99.90;;;;;;6131150;23;20029;-91
2022/01/10 15:15:15;;;;;;;33.27;18.03;;;4.30;99.90;;;;;;6130809;23;20318;-92
2022/01/10 15:48:22;;;;;;;32.58;16.48;;;3.70;99.90;;;;;;6161470;23;20093;-90
2022/01/10 15:50:48;;;;;;;30.50;16.42;;;3.70;99.90;;;;;;6160036;23;20032;-92
2022/01/10 15:53:14;;;;;;;28.33;16.97;;;3.70;99.90;;;;;;6159829;23;20017;-92
2022/01/10 15:55:39;;;;;;;24.73;15.40;;;3.70;99.90;;;;;;6160035;23;20025;-91
2022/01/10 15:58:05;;;;;;;28.73;17.57;;;3.70;99.90;;;;;;6159800;23;20024;-92
2022/01/10 16:00:31;;;;;;;24.63;15.33;;;3.60;99.90;;;;;;6160078;23;20017;-91
2022/01/10 16:02:57;;;;;;;22.87;14.93;;;3.60;99.90;;;;;;6160220;23;20013;-91
2022/01/10 16:05:45;;;;;;;26.00;14.10;;;3.50;99.90;;;;;;6159731;23;20024;-91
2022/01/10 16:08:11;;;;;;;27.70;15.98;;;3.50;99.90;;;;;;6159317;23;20017;-92
2022/01/10 16:10:46;;;;;;;25.70;15.73;;;3.50;99.90;;;;;;6159684;23;20027;-92
2022/01/10 16:13:15;;;;;;;26.92;15.00;;;3.40;99.90;;;;;;6160340;23;20025;-93
2022/01/10 16:15:41;;;;;;;24.55;14.35;;;3.40;99.90;;;;;;6161875;23;20052;-93
2022/01/10 16:18:07;;;;;;;23.53;14.20;;;3.40;99.90;;;;;;6159442;23;20062;-92
2022/01/10 16:20:35;;;;;;;30.80;14.43;;;3.30;99.90;;;;;;6159345;23;20033;-91
2022/01/10 16:23:01;;;;;;;27.38;14.82;;;3.30;99.90;;;;;;6160055;23;20013;-93
2022/01/10 16:25:30;;;;;;;22.10;14.33;;;3.20;99.90;;;;;;6159641;23;20048;-91
2022/01/10 16:28:05;;;;;;;25.95;15.02;;;3.20;99.90;;;;;;6159213;23;20469;-92
2022/01/10 16:52:02;;;;;;;22.08;14.20;;;2.90;99.90;;;;;;6126560;23;20025;-94
2022/01/10 16:54:28;;;;;;;23.15;14.43;;;2.80;99.90;;;;;;6077280;23;20030;-94
2022/01/10 16:56:54;;;;;;;19.87;13.67;;;2.80;99.90;;;;;;6101109;23;20014;-94
2022/01/10 16:59:20;;;;;;;18.30;13.63;;;2.80;99.90;;;;;;6101184;23;20301;-92
2022/01/10 17:01:46;;;;;;;23.17;15.03;;;2.70;99.90;;;;;;6101089;23;20052;-88
2022/01/10 17:04:11;;;;;;;29.07;15.27;;;2.70;99.90;;;;;;6101027;23;20017;-91
2022/01/10 17:06:37;;;;;;;25.38;16.05;;;2.60;99.90;;;;;;6102088;23;20106;-92
2022/01/10 17:09:04;;;;;;;24.73;16.77;;;2.50;99.90;;;;;;6102781;23;20022;-91
2022/01/10 18:08:03;;;;;;;29.38;18.58;;;2.20;99.90;;;;;;6127360;23;20026;-89
2022/01/10 18:10:29;;;;;;;31.77;18.90;;;2.20;99.90;;;;;;6078166;23;20022;-90
2022/01/10 18:15:38;;;;;;;29.40;18.73;;;2.10;99.90;;;;;;6133596;23;20029;-88
2022/01/10 18:19:04;;;;;;;26.13;18.30;;;2.10;99.90;;;;;;6179629;23;20022;-90
2022/01/10 18:21:30;;;;;;;30.38;18.13;;;2.10;99.90;;;;;;6104635;23;20017;-93
2022/01/10 18:23:58;;;;;;;25.67;17.52;;;2.00;99.90;;;;;;6131130;23;20013;-92
2022/01/10 18:26:24;;;;;;;29.27;18.35;;;1.90;99.90;;;;;;6131151;23;20021;-90
2022/01/10 18:33:57;;;;;;;32.72;19.23;;;1.80;99.90;;;;;;6175537;23;20090;-89
2022/01/10 18:36:25;;;;;;;28.35;18.38;;;1.80;99.90;;;;;;6160459;23;20021;-91
2022/01/10 18:38:51;;;;;;;35.67;21.15;;;1.80;99.90;;;;;;6160875;23;20087;-88
2022/01/10 18:43:53;;;;;;;30.88;19.35;;;1.80;99.90;;;;;;6186774;23;20316;-94
2022/01/10 18:46:20;;;;;;;30.40;18.88;;;1.80;99.90;;;;;;6163340;23;20455;-87
2022/01/10 18:48:46;;;;;;;;;;;1.80;99.90;;;;;;6167892;23;20021;-89
2022/01/10 18:51:13;;;;;;;28.58;18.23;;;1.80;99.90;;;;;;6142365;23;19923;-92
2022/01/10 18:53:39;;;;;;;28.30;17.85;;;1.70;99.90;;;;;;6167347;23;20048;-91
2022/01/10 18:56:42;;;;;;;29.88;18.40;;;1.70;99.90;;;;;;6167255;23;20021;-89
2022/01/10 18:59:11;;;;;;;29.20;19.42;;;1.60;99.90;;;;;;6160697;23;20021;-91
2022/01/10 19:17:37;;;;;;;34.45;22.88;;;1.60;99.90;;;;;;6097216;23;20045;-93
2022/01/10 19:22:52;;;;;;;35.95;23.38;;;1.60;99.90;;;;;;6120310;23;20026;-89
2022/01/10 19:25:19;;;;;;;37.95;24.30;;;1.60;99.90;;;;;;6125719;23;20028;-91
2022/01/10 19:48:55;;;;;;;46.97;26.88;;;1.50;99.90;;;;;;6185863;23;20029;-89
2022/01/10 19:51:21;;;;;;;44.20;28.00;;;1.50;99.90;;;;;;6159686;23;20461;-87
2022/01/10 19:53:47;;;;;;;45.90;28.80;;;1.60;99.90;;;;;;6159926;23;20017;-89
2022/01/10 20:01:24;;;;;;;52.35;26.52;;;1.60;99.90;;;;;;6184817;23;20024;-89
2022/01/10 20:03:50;;;;;;;48.40;26.38;;;1.60;99.90;;;;;;6159715;23;20021;-89